sensor_id;sensor_type;location;lat;lon;timestamp;temperature;humidity
19868;DHT22;10096;51.112;6.776;2023-04-24T00:00:45;11.50;1.00
19868;DHT22;10096;51.112;6.776;2023-04-24T00:03:12;11.30;1.00
19868;DHT22;10096;51.112;6.776;2023-04-24T00:05:39;11.40;1.00
19868;DHT22;10096;51.112;6.776;2023-04-24T00:08:06;11.20;1.00
19868;DHT22;10096;51.112;6.776;2023-04-24T00:10:33;11.40;1.00
19868;DHT22;10096;51.112;6.776;2023-04-24T00:13:00;11.20;1.00
19868;DHT22;10096;51.112;6.776;2023-04-24T00:15:29;11.30;1.00
19868;DHT22;10096;51.112;6.776;2023-04-24T00:17:56;11.30;1.00
19868;DHT22;10096;51.112;6.776;2023-04-24T00:20:23;11.40;1.00
19868;DHT22;10096;51.112;6.776;2023-04-24T00:22:50;11.50;1.00
19868;DHT22;10096;51.112;6.776;2023-04-24T00:25:17;11.60;1.00
19868;DHT22;10096;51.112;6.776;2023-04-24T00:27:45;11.50;1.00
19868;DHT22;10096;51.112;6.776;2023-04-24T00:30:13;11.90;1.00
19868;DHT22;10096;51.112;6.776;2023-04-24T00:32:41;11.70;1.00
19868;DHT22;10096;51.112;6.776;2023-04-24T00:35:08;11.40;1.00
19868;DHT22;10096;51.112;6.776;2023-04-24T00:37:35;11.90;1.00
19868;DHT22;10096;51.112;6.776;2023-04-24T00:40:03;11.70;1.00
19868;DHT22;10096;51.112;6.776;2023-04-24T00:42:31;11.70;1.00
19868;DHT22;10096;51.112;6.776;2023-04-24T00:44:58;11.80;1.00
19868;DHT22;10096;51.112;6.776;2023-04-24T00:47:27;12.00;1.00
19868;DHT22;10096;51.112;6.776;2023-04-24T00:49:56;11.70;1.00
19868;DHT22;10096;51.112;6.776;2023-04-24T00:52:23;12.10;1.00
19868;DHT22;10096;51.112;6.776;2023-04-24T00:54:50;11.80;1.00
19868;DHT22;10096;51.112;6.776;2023-04-24T00:57:18;11.80;1.00
19868;DHT22;10096;51.112;6.776;2023-04-24T00:59:45;11.70;1.00
19868;DHT22;10096;51.112;6.776;2023-04-24T01:02:13;12.00;1.00
19868;DHT22;10096;51.112;6.776;2023-04-24T01:04:41;11.90;1.00
19868;DHT22;10096;51.112;6.776;2023-04-24T01:07:09;11.80;1.00
19868;DHT22;10096;51.112;6.776;2023-04-24T01:09:37;11.90;1.00
19868;DHT22;10096;51.112;6.776;2023-04-24T01:12:06;11.70;1.00
19868;DHT22;10096;51.112;6.776;2023-04-24T01:14:33;11.70;1.00
19868;DHT22;10096;51.112;6.776;2023-04-24T01:17:00;11.60;1.00
19868;DHT22;10096;51.112;6.776;2023-04-24T01:19:28;11.60;1.00
19868;DHT22;10096;51.112;6.776;2023-04-24T01:21:58;11.60;1.00
19868;DHT22;10096;51.112;6.776;2023-04-24T01:24:26;11.20;1.00
19868;DHT22;10096;51.112;6.776;2023-04-24T01:26:54;11.10;1.00
19868;DHT22;10096;51.112;6.776;2023-04-24T01:29:21;11.00;1.00
19868;DHT22;10096;51.112;6.776;2023-04-24T01:31:48;10.90;1.00
19868;DHT22;10096;51.112;6.776;2023-04-24T01:34:15;10.90;1.00
19868;DHT22;10096;51.112;6.776;2023-04-24T01:36:43;10.50;1.00
19868;DHT22;10096;51.112;6.776;2023-04-24T01:39:12;10.60;1.00
19868;DHT22;10096;51.112;6.776;2023-04-24T01:41:40;10.30;1.00
19868;DHT22;10096;51.112;6.776;2023-04-24T01:44:07;10.20;1.00
19868;DHT22;10096;51.112;6.776;2023-04-24T01:46:34;10.10;1.00
19868;DHT22;10096;51.112;6.776;2023-04-24T01:49:02;10.30;1.00
19868;DHT22;10096;51.112;6.776;2023-04-24T01:51:29;10.00;1.00
19868;DHT22;10096;51.112;6.776;2023-04-24T01:53:57;10.10;1.00
19868;DHT22;10096;51.112;6.776;2023-04-24T01:56:24;10.00;1.00
19868;DHT22;10096;51.112;6.776;2023-04-24T01:58:54;9.90;1.00
19868;DHT22;10096;51.112;6.776;2023-04-24T02:01:23;10.20;1.00
19868;DHT22;10096;51.112;6.776;2023-04-24T02:03:53;10.00;1.00
19868;DHT22;10096;51.112;6.776;2023-04-24T02:06:20;10.10;1.00
19868;DHT22;10096;51.112;6.776;2023-04-24T02:08:47;10.10;1.00
19868;DHT22;10096;51.112;6.776;2023-04-24T02:11:14;10.30;1.00
19868;DHT22;10096;51.112;6.776;2023-04-24T02:13:41;10.50;1.00
19868;DHT22;10096;51.112;6.776;2023-04-24T02:16:10;10.30;1.00
19868;DHT22;10096;51.112;6.776;2023-04-24T02:18:37;10.40;1.00
19868;DHT22;10096;51.112;6.776;2023-04-24T02:21:04;10.30;1.00
19868;DHT22;10096;51.112;6.776;2023-04-24T02:23:31;10.30;1.00
19868;DHT22;10096;51.112;6.776;2023-04-24T02:25:58;10.60;1.00
19868;DHT22;10096;51.112;6.776;2023-04-24T02:28:25;10.70;1.00
19868;DHT22;10096;51.112;6.776;2023-04-24T02:30:52;10.60;1.00
19868;DHT22;10096;51.112;6.776;2023-04-24T02:33:21;10.40;1.00
19868;DHT22;10096;51.112;6.776;2023-04-24T02:35:48;10.60;1.00
19868;DHT22;10096;51.112;6.776;2023-04-24T02:38:15;10.60;1.00
19868;DHT22;10096;51.112;6.776;2023-04-24T02:40:42;10.70;1.00
19868;DHT22;10096;51.112;6.776;2023-04-24T02:43:09;10.90;1.00
19868;DHT22;10096;51.112;6.776;2023-04-24T02:45:36;10.80;1.00
19868;DHT22;10096;51.112;6.776;2023-04-24T02:48:04;10.80;1.00
19868;DHT22;10096;51.112;6.776;2023-04-24T02:50:32;10.80;1.00
19868;DHT22;10096;51.112;6.776;2023-04-24T02:52:59;11.00;1.00
19868;DHT22;10096;51.112;6.776;2023-04-24T02:55:26;10.90;1.00
19868;DHT22;10096;51.112;6.776;2023-04-24T02:57:53;11.00;1.00
19868;DHT22;10096;51.112;6.776;2023-04-24T03:00:20;10.80;1.00
19868;DHT22;10096;51.112;6.776;2023-04-24T03:02:48;10.80;1.00
19868;DHT22;10096;51.112;6.776;2023-04-24T03:05:16;10.80;1.00
19868;DHT22;10096;51.112;6.776;2023-04-24T03:07:44;10.80;1.00
19868;DHT22;10096;51.112;6.776;2023-04-24T03:10:11;10.70;1.00
19868;DHT22;10096;51.112;6.776;2023-04-24T03:12:38;11.00;1.00
19868;DHT22;10096;51.112;6.776;2023-04-24T03:15:06;10.80;1.00
19868;DHT22;10096;51.112;6.776;2023-04-24T03:17:34;10.80;1.00
19868;DHT22;10096;51.112;6.776;2023-04-24T03:20:02;10.80;1.00
19868;DHT22;10096;51.112;6.776;2023-04-24T03:22:30;10.80;1.00
19868;DHT22;10096;51.112;6.776;2023-04-24T03:24:59;10.70;1.00
19868;DHT22;10096;51.112;6.776;2023-04-24T03:27:26;10.70;1.00
19868;DHT22;10096;51.112;6.776;2023-04-24T03:29:53;10.70;1.00
19868;DHT22;10096;51.112;6.776;2023-04-24T03:32:21;10.70;1.00
19868;DHT22;10096;51.112;6.776;2023-04-24T03:34:48;11.10;1.00
19868;DHT22;10096;51.112;6.776;2023-04-24T03:37:15;10.90;1.00
19868;DHT22;10096;51.112;6.776;2023-04-24T03:39:42;11.00;1.00
19868;DHT22;10096;51.112;6.776;2023-04-24T03:42:11;11.00;1.00
19868;DHT22;10096;51.112;6.776;2023-04-24T03:44:38;10.90;1.00
19868;DHT22;10096;51.112;6.776;2023-04-24T03:47:05;11.10;1.00
19868;DHT22;10096;51.112;6.776;2023-04-24T03:49:32;11.20;1.00
19868;DHT22;10096;51.112;6.776;2023-04-24T03:52:01;11.00;1.00
19868;DHT22;10096;51.112;6.776;2023-04-24T03:54:28;11.00;1.00
19868;DHT22;10096;51.112;6.776;2023-04-24T03:56:55;10.90;1.00
19868;DHT22;10096;51.112;6.776;2023-04-24T03:59:23;11.10;1.00
19868;DHT22;10096;51.112;6.776;2023-04-24T04:01:50;10.90;1.00
19868;DHT22;10096;51.112;6.776;2023-04-24T04:04:17;10.80;1.00
19868;DHT22;10096;51.112;6.776;2023-04-24T04:06:44;10.80;1.00
19868;DHT22;10096;51.112;6.776;2023-04-24T04:09:15;10.80;1.00
19868;DHT22;10096;51.112;6.776;2023-04-24T04:11:42;11.10;1.00
19868;DHT22;10096;51.112;6.776;2023-04-24T04:14:09;10.90;1.00
19868;DHT22;10096;51.112;6.776;2023-04-24T04:16:37;10.70;1.00
19868;DHT22;10096;51.112;6.776;2023-04-24T04:19:04;10.70;1.00
19868;DHT22;10096;51.112;6.776;2023-04-24T04:21:31;10.80;1.00
19868;DHT22;10096;51.112;6.776;2023-04-24T04:23:58;10.70;1.00
19868;DHT22;10096;51.112;6.776;2023-04-24T04:26:25;10.60;1.00
19868;DHT22;10096;51.112;6.776;2023-04-24T04:28:53;10.60;1.00
19868;DHT22;10096;51.112;6.776;2023-04-24T04:31:21;10.50;1.00
19868;DHT22;10096;51.112;6.776;2023-04-24T04:33:50;10.50;1.00
19868;DHT22;10096;51.112;6.776;2023-04-24T04:36:17;10.60;1.00
19868;DHT22;10096;51.112;6.776;2023-04-24T04:38:44;10.60;1.00
19868;DHT22;10096;51.112;6.776;2023-04-24T04:41:11;10.60;1.00
19868;DHT22;10096;51.112;6.776;2023-04-24T04:43:38;10.60;1.00
19868;DHT22;10096;51.112;6.776;2023-04-24T04:46:06;10.90;1.00
19868;DHT22;10096;51.112;6.776;2023-04-24T04:48:34;10.60;1.00
19868;DHT22;10096;51.112;6.776;2023-04-24T04:51:02;10.80;1.00
19868;DHT22;10096;51.112;6.776;2023-04-24T04:53:29;10.60;1.00
19868;DHT22;10096;51.112;6.776;2023-04-24T04:55:56;10.50;1.00
19868;DHT22;10096;51.112;6.776;2023-04-24T04:58:23;10.60;1.00
19868;DHT22;10096;51.112;6.776;2023-04-24T05:00:50;10.60;1.00
19868;DHT22;10096;51.112;6.776;2023-04-24T05:03:17;10.80;1.00
19868;DHT22;10096;51.112;6.776;2023-04-24T05:05:44;10.60;1.00
19868;DHT22;10096;51.112;6.776;2023-04-24T05:08:13;10.70;1.00
19868;DHT22;10096;51.112;6.776;2023-04-24T05:10:40;10.70;1.00
19868;DHT22;10096;51.112;6.776;2023-04-24T05:13:07;10.80;1.00
19868;DHT22;10096;51.112;6.776;2023-04-24T05:15:34;10.70;1.00
19868;DHT22;10096;51.112;6.776;2023-04-24T05:18:01;10.70;1.00
19868;DHT22;10096;51.112;6.776;2023-04-24T05:20:31;10.60;1.00
19868;DHT22;10096;51.112;6.776;2023-04-24T05:23:01;10.60;1.00
19868;DHT22;10096;51.112;6.776;2023-04-24T05:25:29;10.50;1.00
19868;DHT22;10096;51.112;6.776;2023-04-24T05:28:00;10.70;1.00
19868;DHT22;10096;51.112;6.776;2023-04-24T05:30:27;10.80;1.00
19868;DHT22;10096;51.112;6.776;2023-04-24T05:32:54;10.60;1.00
19868;DHT22;10096;51.112;6.776;2023-04-24T05:35:21;10.40;1.00
19868;DHT22;10096;51.112;6.776;2023-04-24T05:37:48;10.40;1.00
19868;DHT22;10096;51.112;6.776;2023-04-24T05:40:16;10.50;9.50
19868;DHT22;10096;51.112;6.776;2023-04-24T05:42:46;10.30;32.70
19868;DHT22;10096;51.112;6.776;2023-04-24T05:45:13;10.30;16.90
19868;DHT22;10096;51.112;6.776;2023-04-24T05:47:42;10.20;1.00
19868;DHT22;10096;51.112;6.776;2023-04-24T05:50:10;10.20;14.40
19868;DHT22;10096;51.112;6.776;2023-04-24T05:52:38;10.30;73.40
19868;DHT22;10096;51.112;6.776;2023-04-24T05:55:06;10.40;1.50
19868;DHT22;10096;51.112;6.776;2023-04-24T05:57:33;10.20;1.00
19868;DHT22;10096;51.112;6.776;2023-04-24T06:00:02;10.30;39.90
19868;DHT22;10096;51.112;6.776;2023-04-24T06:02:30;10.30;12.80
19868;DHT22;10096;51.112;6.776;2023-04-24T06:04:58;10.30;1.00
19868;DHT22;10096;51.112;6.776;2023-04-24T06:07:26;10.40;36.30
19868;DHT22;10096;51.112;6.776;2023-04-24T06:09:53;10.30;11.50
19868;DHT22;10096;51.112;6.776;2023-04-24T06:12:20;10.40;46.60
19868;DHT22;10096;51.112;6.776;2023-04-24T06:14:47;10.50;1.00
19868;DHT22;10096;51.112;6.776;2023-04-24T06:17:16;10.40;1.00
19868;DHT22;10096;51.112;6.776;2023-04-24T06:19:43;10.40;1.00
19868;DHT22;10096;51.112;6.776;2023-04-24T06:22:13;10.40;6.00
19868;DHT22;10096;51.112;6.776;2023-04-24T06:24:40;10.30;1.00
19868;DHT22;10096;51.112;6.776;2023-04-24T06:27:10;10.20;51.90
19868;DHT22;10096;51.112;6.776;2023-04-24T06:29:38;10.10;86.30
19868;DHT22;10096;51.112;6.776;2023-04-24T06:32:05;10.20;99.90
19868;DHT22;10096;51.112;6.776;2023-04-24T06:34:36;10.20;99.90
19868;DHT22;10096;51.112;6.776;2023-04-24T06:37:10;10.00;99.90
19868;DHT22;10096;51.112;6.776;2023-04-24T06:39:37;10.00;99.90
19868;DHT22;10096;51.112;6.776;2023-04-24T06:42:04;10.10;99.90
19868;DHT22;10096;51.112;6.776;2023-04-24T06:44:31;10.40;99.90
19868;DHT22;10096;51.112;6.776;2023-04-24T06:47:06;10.10;99.90
19868;DHT22;10096;51.112;6.776;2023-04-24T06:49:34;10.00;99.90
19868;DHT22;10096;51.112;6.776;2023-04-24T06:52:01;10.40;99.90
19868;DHT22;10096;51.112;6.776;2023-04-24T06:54:28;10.10;99.90
19868;DHT22;10096;51.112;6.776;2023-04-24T06:56:56;10.10;99.90
19868;DHT22;10096;51.112;6.776;2023-04-24T06:59:23;9.80;99.90
19868;DHT22;10096;51.112;6.776;2023-04-24T07:01:50;10.10;99.90
19868;DHT22;10096;51.112;6.776;2023-04-24T07:04:17;9.90;99.90
19868;DHT22;10096;51.112;6.776;2023-04-24T07:06:46;9.90;99.90
19868;DHT22;10096;51.112;6.776;2023-04-24T07:09:14;9.90;99.90
19868;DHT22;10096;51.112;6.776;2023-04-24T07:11:44;10.00;99.90
19868;DHT22;10096;51.112;6.776;2023-04-24T07:14:11;10.10;99.90
19868;DHT22;10096;51.112;6.776;2023-04-24T07:16:38;10.20;99.90
19868;DHT22;10096;51.112;6.776;2023-04-24T07:19:05;9.90;99.90
19868;DHT22;10096;51.112;6.776;2023-04-24T07:21:33;10.00;99.90
19868;DHT22;10096;51.112;6.776;2023-04-24T07:24:02;10.10;99.90
19868;DHT22;10096;51.112;6.776;2023-04-24T07:26:30;10.20;99.90
19868;DHT22;10096;51.112;6.776;2023-04-24T07:28:57;10.30;99.90
19868;DHT22;10096;51.112;6.776;2023-04-24T07:31:24;10.00;99.90
19868;DHT22;10096;51.112;6.776;2023-04-24T07:33:51;10.00;99.90
19868;DHT22;10096;51.112;6.776;2023-04-24T07:36:20;10.10;99.90
19868;DHT22;10096;51.112;6.776;2023-04-24T07:38:47;10.10;99.90
19868;DHT22;10096;51.112;6.776;2023-04-24T07:41:15;10.00;99.90
19868;DHT22;10096;51.112;6.776;2023-04-24T07:43:44;9.90;99.90
19868;DHT22;10096;51.112;6.776;2023-04-24T07:46:11;9.90;99.90
19868;DHT22;10096;51.112;6.776;2023-04-24T07:48:38;9.70;99.90
19868;DHT22;10096;51.112;6.776;2023-04-24T07:51:05;9.40;99.90
19868;DHT22;10096;51.112;6.776;2023-04-24T07:53:32;9.40;93.20
19868;DHT22;10096;51.112;6.776;2023-04-24T07:55:59;9.20;99.90
19868;DHT22;10096;51.112;6.776;2023-04-24T07:58:28;9.20;99.90
19868;DHT22;10096;51.112;6.776;2023-04-24T08:00:55;9.00;99.90
19868;DHT22;10096;51.112;6.776;2023-04-24T08:03:22;9.00;99.90
19868;DHT22;10096;51.112;6.776;2023-04-24T08:05:50;8.90;99.90
19868;DHT22;10096;51.112;6.776;2023-04-24T08:08:19;9.00;99.90
19868;DHT22;10096;51.112;6.776;2023-04-24T08:10:46;9.40;99.90
19868;DHT22;10096;51.112;6.776;2023-04-24T08:13:13;9.00;1.00
19868;DHT22;10096;51.112;6.776;2023-04-24T08:15:42;9.10;1.00
19868;DHT22;10096;51.112;6.776;2023-04-24T08:18:09;8.90;1.00
19868;DHT22;10096;51.112;6.776;2023-04-24T08:20:38;9.30;99.90
19868;DHT22;10096;51.112;6.776;2023-04-24T08:23:05;9.20;1.00
19868;DHT22;10096;51.112;6.776;2023-04-24T08:25:32;9.10;1.00
19868;DHT22;10096;51.112;6.776;2023-04-24T08:28:01;9.30;1.00
19868;DHT22;10096;51.112;6.776;2023-04-24T08:30:29;9.00;1.00
19868;DHT22;10096;51.112;6.776;2023-04-24T08:32:57;9.10;1.00
19868;DHT22;10096;51.112;6.776;2023-04-24T08:35:24;9.30;99.90
19868;DHT22;10096;51.112;6.776;2023-04-24T08:37:52;9.40;99.90
19868;DHT22;10096;51.112;6.776;2023-04-24T08:40:22;9.50;99.90
19868;DHT22;10096;51.112;6.776;2023-04-24T08:42:54;9.70;99.90
19868;DHT22;10096;51.112;6.776;2023-04-24T08:45:22;9.50;99.90
19868;DHT22;10096;51.112;6.776;2023-04-24T08:47:49;9.60;1.00
19868;DHT22;10096;51.112;6.776;2023-04-24T08:50:18;9.40;1.00
19868;DHT22;10096;51.112;6.776;2023-04-24T08:52:45;9.80;1.00
19868;DHT22;10096;51.112;6.776;2023-04-24T08:55:13;9.70;1.00
19868;DHT22;10096;51.112;6.776;2023-04-24T08:57:42;9.70;1.00
19868;DHT22;10096;51.112;6.776;2023-04-24T09:00:11;9.40;1.00
19868;DHT22;10096;51.112;6.776;2023-04-24T09:02:42;9.60;1.00
19868;DHT22;10096;51.112;6.776;2023-04-24T09:05:10;9.40;1.00
19868;DHT22;10096;51.112;6.776;2023-04-24T09:07:42;9.40;1.00
19868;DHT22;10096;51.112;6.776;2023-04-24T09:10:11;9.60;1.00
19868;DHT22;10096;51.112;6.776;2023-04-24T09:12:39;9.70;1.00
19868;DHT22;10096;51.112;6.776;2023-04-24T09:15:08;9.60;1.00
19868;DHT22;10096;51.112;6.776;2023-04-24T09:17:36;9.70;1.00
19868;DHT22;10096;51.112;6.776;2023-04-24T09:20:06;9.60;1.00
19868;DHT22;10096;51.112;6.776;2023-04-24T09:22:33;9.70;1.00
19868;DHT22;10096;51.112;6.776;2023-04-24T09:25:06;9.80;1.00
19868;DHT22;10096;51.112;6.776;2023-04-24T09:27:34;9.80;1.00
19868;DHT22;10096;51.112;6.776;2023-04-24T09:30:02;10.10;1.00
19868;DHT22;10096;51.112;6.776;2023-04-24T09:32:29;9.80;99.90
19868;DHT22;10096;51.112;6.776;2023-04-24T09:35:12;9.80;99.90
19868;DHT22;10096;51.112;6.776;2023-04-24T09:37:41;10.00;99.90
19868;DHT22;10096;51.112;6.776;2023-04-24T09:40:13;10.10;99.90
19868;DHT22;10096;51.112;6.776;2023-04-24T09:42:43;10.10;1.00
19868;DHT22;10096;51.112;6.776;2023-04-24T09:45:11;10.20;99.90
19868;DHT22;10096;51.112;6.776;2023-04-24T09:47:39;10.40;1.00
19868;DHT22;10096;51.112;6.776;2023-04-24T09:50:13;10.50;99.90
19868;DHT22;10096;51.112;6.776;2023-04-24T09:52:42;10.70;1.00
19868;DHT22;10096;51.112;6.776;2023-04-24T09:55:16;10.70;99.90
19868;DHT22;10096;51.112;6.776;2023-04-24T09:57:48;10.60;99.90
19868;DHT22;10096;51.112;6.776;2023-04-24T10:00:19;10.80;99.90
19868;DHT22;10096;51.112;6.776;2023-04-24T10:02:50;11.00;99.90
19868;DHT22;10096;51.112;6.776;2023-04-24T10:05:18;11.00;99.90
19868;DHT22;10096;51.112;6.776;2023-04-24T10:07:46;11.20;99.90
19868;DHT22;10096;51.112;6.776;2023-04-24T10:10:14;11.30;99.90
19868;DHT22;10096;51.112;6.776;2023-04-24T10:12:42;11.40;99.90
19868;DHT22;10096;51.112;6.776;2023-04-24T10:15:10;11.60;99.90
19868;DHT22;10096;51.112;6.776;2023-04-24T10:17:39;11.90;99.90
19868;DHT22;10096;51.112;6.776;2023-04-24T10:20:50;12.10;96.50
19868;DHT22;10096;51.112;6.776;2023-04-24T10:23:29;12.10;73.70
19868;DHT22;10096;51.112;6.776;2023-04-24T10:26:00;12.30;11.20
19868;DHT22;10096;51.112;6.776;2023-04-24T10:28:27;12.60;12.30
19868;DHT22;10096;51.112;6.776;2023-04-24T10:30:56;12.30;1.00
19868;DHT22;10096;51.112;6.776;2023-04-24T10:33:26;12.20;1.00
19868;DHT22;10096;51.112;6.776;2023-04-24T10:35:55;12.30;1.00
19868;DHT22;10096;51.112;6.776;2023-04-24T10:38:25;12.00;1.00
19868;DHT22;10096;51.112;6.776;2023-04-24T10:41:07;12.00;1.00
19868;DHT22;10096;51.112;6.776;2023-04-24T10:43:44;11.60;1.00
19868;DHT22;10096;51.112;6.776;2023-04-24T10:46:19;11.60;99.90
19868;DHT22;10096;51.112;6.776;2023-04-24T10:48:53;11.90;99.90
19868;DHT22;10096;51.112;6.776;2023-04-24T10:51:22;12.10;36.40
19868;DHT22;10096;51.112;6.776;2023-04-24T10:53:52;12.50;89.30
19868;DHT22;10096;51.112;6.776;2023-04-24T10:56:21;12.20;1.00
19868;DHT22;10096;51.112;6.776;2023-04-24T10:58:50;12.70;1.00
19868;DHT22;10096;51.112;6.776;2023-04-24T11:01:28;12.80;1.00
19868;DHT22;10096;51.112;6.776;2023-04-24T11:04:01;12.70;1.00
19868;DHT22;10096;51.112;6.776;2023-04-24T11:06:36;12.80;1.00
19868;DHT22;10096;51.112;6.776;2023-04-24T11:09:10;12.90;1.00
19868;DHT22;10096;51.112;6.776;2023-04-24T11:11:46;13.20;1.00
19868;DHT22;10096;51.112;6.776;2023-04-24T11:14:14;13.00;1.00
19868;DHT22;10096;51.112;6.776;2023-04-24T11:16:47;13.00;1.00
19868;DHT22;10096;51.112;6.776;2023-04-24T11:19:22;13.20;1.00
19868;DHT22;10096;51.112;6.776;2023-04-24T11:22:03;13.20;1.00
19868;DHT22;10096;51.112;6.776;2023-04-24T11:24:39;13.40;1.00
19868;DHT22;10096;51.112;6.776;2023-04-24T11:27:13;13.90;1.00
19868;DHT22;10096;51.112;6.776;2023-04-24T11:29:43;14.20;1.00
19868;DHT22;10096;51.112;6.776;2023-04-24T11:32:15;14.20;1.00
19868;DHT22;10096;51.112;6.776;2023-04-24T11:34:46;14.20;1.00
19868;DHT22;10096;51.112;6.776;2023-04-24T11:37:13;14.60;1.00
19868;DHT22;10096;51.112;6.776;2023-04-24T11:39:40;14.60;1.00
19868;DHT22;10096;51.112;6.776;2023-04-24T11:42:09;14.60;1.00
19868;DHT22;10096;51.112;6.776;2023-04-24T11:44:37;14.50;1.00
19868;DHT22;10096;51.112;6.776;2023-04-24T11:47:05;14.50;1.00
19868;DHT22;10096;51.112;6.776;2023-04-24T11:49:32;14.30;1.00
19868;DHT22;10096;51.112;6.776;2023-04-24T11:52:00;14.40;1.00
19868;DHT22;10096;51.112;6.776;2023-04-24T11:54:27;14.30;1.00
19868;DHT22;10096;51.112;6.776;2023-04-24T11:56:55;14.40;1.00
19868;DHT22;10096;51.112;6.776;2023-04-24T11:59:24;14.30;1.00
19868;DHT22;10096;51.112;6.776;2023-04-24T12:01:51;14.10;1.00
19868;DHT22;10096;51.112;6.776;2023-04-24T12:04:18;14.10;1.00
19868;DHT22;10096;51.112;6.776;2023-04-24T12:07:00;14.00;1.00
19868;DHT22;10096;51.112;6.776;2023-04-24T12:09:27;13.90;1.00
19868;DHT22;10096;51.112;6.776;2023-04-24T12:11:55;13.70;1.00
19868;DHT22;10096;51.112;6.776;2023-04-24T12:14:30;14.00;1.00
19868;DHT22;10096;51.112;6.776;2023-04-24T12:16:57;14.10;1.00
19868;DHT22;10096;51.112;6.776;2023-04-24T12:19:25;14.20;1.00
19868;DHT22;10096;51.112;6.776;2023-04-24T12:22:02;14.70;1.00
19868;DHT22;10096;51.112;6.776;2023-04-24T12:24:29;14.60;1.00
19868;DHT22;10096;51.112;6.776;2023-04-24T12:26:56;14.80;1.00
19868;DHT22;10096;51.112;6.776;2023-04-24T12:29:29;15.10;1.00
19868;DHT22;10096;51.112;6.776;2023-04-24T12:32:20;15.40;1.00
19868;DHT22;10096;51.112;6.776;2023-04-24T12:35:51;15.50;1.00
19868;DHT22;10096;51.112;6.776;2023-04-24T12:38:21;15.10;1.00
19868;DHT22;10096;51.112;6.776;2023-04-24T12:41:08;15.00;1.00
19868;DHT22;10096;51.112;6.776;2023-04-24T12:44:01;14.70;1.00
19868;DHT22;10096;51.112;6.776;2023-04-24T12:46:31;14.50;1.00
19868;DHT22;10096;51.112;6.776;2023-04-24T12:48:59;14.50;1.00
19868;DHT22;10096;51.112;6.776;2023-04-24T12:51:26;14.80;1.00
19868;DHT22;10096;51.112;6.776;2023-04-24T12:53:53;15.00;1.00
19868;DHT22;10096;51.112;6.776;2023-04-24T12:56:20;15.20;1.00
19868;DHT22;10096;51.112;6.776;2023-04-24T12:58:47;14.80;99.90
19868;DHT22;10096;51.112;6.776;2023-04-24T13:01:14;14.40;99.90
19868;DHT22;10096;51.112;6.776;2023-04-24T13:03:43;14.30;99.90
19868;DHT22;10096;51.112;6.776;2023-04-24T13:06:13;13.80;99.90
19868;DHT22;10096;51.112;6.776;2023-04-24T13:08:40;13.90;99.90
19868;DHT22;10096;51.112;6.776;2023-04-24T13:11:07;14.20;99.90
19868;DHT22;10096;51.112;6.776;2023-04-24T13:13:34;14.20;99.90
19868;DHT22;10096;51.112;6.776;2023-04-24T13:16:01;14.20;99.90
19868;DHT22;10096;51.112;6.776;2023-04-24T13:18:28;14.40;99.90
19868;DHT22;10096;51.112;6.776;2023-04-24T13:20:57;14.30;99.90
19868;DHT22;10096;51.112;6.776;2023-04-24T13:23:24;14.50;99.90
19868;DHT22;10096;51.112;6.776;2023-04-24T13:25:51;14.60;99.90
19868;DHT22;10096;51.112;6.776;2023-04-24T13:28:20;15.00;99.90
19868;DHT22;10096;51.112;6.776;2023-04-24T13:30:48;14.90;99.90
19868;DHT22;10096;51.112;6.776;2023-04-24T13:33:15;15.30;99.90
19868;DHT22;10096;51.112;6.776;2023-04-24T13:35:42;14.90;99.90
19868;DHT22;10096;51.112;6.776;2023-04-24T13:38:17;14.90;99.90
19868;DHT22;10096;51.112;6.776;2023-04-24T13:40:47;15.20;99.90
19868;DHT22;10096;51.112;6.776;2023-04-24T13:43:14;15.00;99.90
19868;DHT22;10096;51.112;6.776;2023-04-24T13:45:41;14.70;99.90
19868;DHT22;10096;51.112;6.776;2023-04-24T13:48:08;14.40;99.90
19868;DHT22;10096;51.112;6.776;2023-04-24T13:50:35;14.80;99.90
19868;DHT22;10096;51.112;6.776;2023-04-24T13:53:02;14.70;99.90
19868;DHT22;10096;51.112;6.776;2023-04-24T13:55:31;14.60;99.90
19868;DHT22;10096;51.112;6.776;2023-04-24T13:57:58;14.50;99.90
19868;DHT22;10096;51.112;6.776;2023-04-24T14:00:25;14.70;99.90
19868;DHT22;10096;51.112;6.776;2023-04-24T14:02:52;14.90;99.90
19868;DHT22;10096;51.112;6.776;2023-04-24T14:05:20;14.80;99.90
19868;DHT22;10096;51.112;6.776;2023-04-24T14:07:47;14.40;99.90
19868;DHT22;10096;51.112;6.776;2023-04-24T14:10:16;14.40;99.90
19868;DHT22;10096;51.112;6.776;2023-04-24T14:12:59;14.40;99.90
19868;DHT22;10096;51.112;6.776;2023-04-24T14:15:28;14.70;99.90
19868;DHT22;10096;51.112;6.776;2023-04-24T14:17:56;15.00;99.90
19868;DHT22;10096;51.112;6.776;2023-04-24T14:20:23;14.40;99.90
19868;DHT22;10096;51.112;6.776;2023-04-24T14:22:53;14.50;99.90
19868;DHT22;10096;51.112;6.776;2023-04-24T14:25:20;14.50;99.90
19868;DHT22;10096;51.112;6.776;2023-04-24T14:27:48;14.50;99.90
19868;DHT22;10096;51.112;6.776;2023-04-24T14:30:16;14.60;99.90
19868;DHT22;10096;51.112;6.776;2023-04-24T14:32:44;14.20;99.90
19868;DHT22;10096;51.112;6.776;2023-04-24T14:35:11;14.70;99.90
19868;DHT22;10096;51.112;6.776;2023-04-24T14:37:39;14.80;99.90
19868;DHT22;10096;51.112;6.776;2023-04-24T14:40:09;14.80;99.90
19868;DHT22;10096;51.112;6.776;2023-04-24T14:42:36;14.80;99.90
19868;DHT22;10096;51.112;6.776;2023-04-24T14:45:04;14.90;99.90
19868;DHT22;10096;51.112;6.776;2023-04-24T14:47:33;15.10;99.90
19868;DHT22;10096;51.112;6.776;2023-04-24T14:50:00;15.00;99.90
19868;DHT22;10096;51.112;6.776;2023-04-24T14:52:27;14.90;99.90
19868;DHT22;10096;51.112;6.776;2023-04-24T14:54:54;14.70;99.90
19868;DHT22;10096;51.112;6.776;2023-04-24T14:57:22;14.70;99.90
19868;DHT22;10096;51.112;6.776;2023-04-24T14:59:49;14.90;99.90
19868;DHT22;10096;51.112;6.776;2023-04-24T15:02:16;14.70;99.90
19868;DHT22;10096;51.112;6.776;2023-04-24T15:04:44;14.90;99.90
19868;DHT22;10096;51.112;6.776;2023-04-24T15:07:15;14.70;99.90
19868;DHT22;10096;51.112;6.776;2023-04-24T15:09:42;14.60;99.90
19868;DHT22;10096;51.112;6.776;2023-04-24T15:12:09;14.60;99.90
19868;DHT22;10096;51.112;6.776;2023-04-24T15:14:38;14.50;99.90
19868;DHT22;10096;51.112;6.776;2023-04-24T15:17:05;14.40;99.90
19868;DHT22;10096;51.112;6.776;2023-04-24T15:19:32;14.30;99.90
19868;DHT22;10096;51.112;6.776;2023-04-24T15:22:01;14.10;99.90
19868;DHT22;10096;51.112;6.776;2023-04-24T15:24:28;14.30;99.90
19868;DHT22;10096;51.112;6.776;2023-04-24T15:26:55;14.00;99.90
19868;DHT22;10096;51.112;6.776;2023-04-24T15:29:22;14.10;99.90
19868;DHT22;10096;51.112;6.776;2023-04-24T15:31:50;14.40;99.90
19868;DHT22;10096;51.112;6.776;2023-04-24T15:34:17;14.30;99.90
19868;DHT22;10096;51.112;6.776;2023-04-24T15:36:44;14.50;99.90
19868;DHT22;10096;51.112;6.776;2023-04-24T15:39:12;14.50;99.90
19868;DHT22;10096;51.112;6.776;2023-04-24T15:41:40;14.40;99.90
19868;DHT22;10096;51.112;6.776;2023-04-24T15:44:10;14.50;99.90
19868;DHT22;10096;51.112;6.776;2023-04-24T15:46:37;14.40;99.90
19868;DHT22;10096;51.112;6.776;2023-04-24T15:49:04;14.40;99.90
19868;DHT22;10096;51.112;6.776;2023-04-24T15:51:31;14.60;99.90